sensor_id;sensor_type;location;lat;lon;timestamp;temperature;humidity
30379;DHT22;17168;49.164;9.060;2022-10-14T00:00:08;15.80;99.90
30379;DHT22;17168;49.164;9.060;2022-10-14T00:02:40;15.80;99.90
30379;DHT22;17168;49.164;9.060;2022-10-14T00:05:12;15.80;99.90
30379;DHT22;17168;49.164;9.060;2022-10-14T00:07:44;15.80;99.90
30379;DHT22;17168;49.164;9.060;2022-10-14T00:10:16;15.80;99.90
30379;DHT22;17168;49.164;9.060;2022-10-14T00:12:49;15.80;99.90
30379;DHT22;17168;49.164;9.060;2022-10-14T00:15:21;15.80;99.90
30379;DHT22;17168;49.164;9.060;2022-10-14T00:17:53;15.80;99.90
30379;DHT22;17168;49.164;9.060;2022-10-14T00:20:24;15.80;99.90
30379;DHT22;17168;49.164;9.060;2022-10-14T00:23:00;15.80;99.90
30379;DHT22;17168;49.164;9.060;2022-10-14T00:25:36;15.70;99.90
30379;DHT22;17168;49.164;9.060;2022-10-14T00:28:10;15.80;99.90
30379;DHT22;17168;49.164;9.060;2022-10-14T00:30:41;15.70;99.90
30379;DHT22;17168;49.164;9.060;2022-10-14T00:33:23;15.80;99.90
30379;DHT22;17168;49.164;9.060;2022-10-14T00:35:58;15.80;99.90
30379;DHT22;17168;49.164;9.060;2022-10-14T00:38:30;15.80;99.90
30379;DHT22;17168;49.164;9.060;2022-10-14T00:41:02;15.80;99.90
30379;DHT22;17168;49.164;9.060;2022-10-14T00:46:36;15.80;99.90
30379;DHT22;17168;49.164;9.060;2022-10-14T00:49:11;15.80;99.90
30379;DHT22;17168;49.164;9.060;2022-10-14T00:51:47;15.80;99.90
30379;DHT22;17168;49.164;9.060;2022-10-14T00:54:24;15.80;99.90
30379;DHT22;17168;49.164;9.060;2022-10-14T00:56:59;15.80;99.90
30379;DHT22;17168;49.164;9.060;2022-10-14T00:59:31;15.80;99.90
30379;DHT22;17168;49.164;9.060;2022-10-14T01:02:05;15.80;99.90
30379;DHT22;17168;49.164;9.060;2022-10-14T01:04:37;15.80;99.90
30379;DHT22;17168;49.164;9.060;2022-10-14T01:07:17;15.80;99.90
30379;DHT22;17168;49.164;9.060;2022-10-14T01:09:59;15.90;99.90
30379;DHT22;17168;49.164;9.060;2022-10-14T01:12:39;15.80;99.90
30379;DHT22;17168;49.164;9.060;2022-10-14T01:15:19;15.80;99.90
30379;DHT22;17168;49.164;9.060;2022-10-14T01:18:00;15.80;99.90
30379;DHT22;17168;49.164;9.060;2022-10-14T01:20:55;15.80;99.90
30379;DHT22;17168;49.164;9.060;2022-10-14T01:23:52;15.90;99.90
30379;DHT22;17168;49.164;9.060;2022-10-14T01:27:11;15.90;99.90
30379;DHT22;17168;49.164;9.060;2022-10-14T01:30:17;15.90;99.90
30379;DHT22;17168;49.164;9.060;2022-10-14T01:33:06;15.80;99.90
30379;DHT22;17168;49.164;9.060;2022-10-14T01:35:47;15.90;99.90
30379;DHT22;17168;49.164;9.060;2022-10-14T01:38:24;15.90;99.90
30379;DHT22;17168;49.164;9.060;2022-10-14T01:41:03;15.80;99.90
30379;DHT22;17168;49.164;9.060;2022-10-14T01:43:37;15.80;99.90
30379;DHT22;17168;49.164;9.060;2022-10-14T01:46:11;15.80;99.90
30379;DHT22;17168;49.164;9.060;2022-10-14T01:48:46;15.80;99.90
30379;DHT22;17168;49.164;9.060;2022-10-14T01:51:22;15.80;99.90
30379;DHT22;17168;49.164;9.060;2022-10-14T01:54:00;15.80;99.90
30379;DHT22;17168;49.164;9.060;2022-10-14T01:56:34;15.80;99.90
30379;DHT22;17168;49.164;9.060;2022-10-14T01:59:11;15.70;99.90
30379;DHT22;17168;49.164;9.060;2022-10-14T02:01:46;15.70;99.90
30379;DHT22;17168;49.164;9.060;2022-10-14T02:04:20;15.70;99.90
30379;DHT22;17168;49.164;9.060;2022-10-14T02:06:59;15.70;99.90
30379;DHT22;17168;49.164;9.060;2022-10-14T02:09:37;15.70;99.90
30379;DHT22;17168;49.164;9.060;2022-10-14T02:12:22;15.70;99.90
30379;DHT22;17168;49.164;9.060;2022-10-14T02:15:10;15.70;99.90
30379;DHT22;17168;49.164;9.060;2022-10-14T02:17:49;15.60;99.90
30379;DHT22;17168;49.164;9.060;2022-10-14T02:20:26;15.60;99.90
30379;DHT22;17168;49.164;9.060;2022-10-14T02:23:02;15.50;99.90
30379;DHT22;17168;49.164;9.060;2022-10-14T02:25:38;15.60;99.90
30379;DHT22;17168;49.164;9.060;2022-10-14T02:28:15;15.50;99.90
30379;DHT22;17168;49.164;9.060;2022-10-14T02:30:50;15.50;99.90
30379;DHT22;17168;49.164;9.060;2022-10-14T02:33:27;15.50;99.90
30379;DHT22;17168;49.164;9.060;2022-10-14T02:36:02;15.50;99.90
30379;DHT22;17168;49.164;9.060;2022-10-14T02:38:37;15.40;99.90
30379;DHT22;17168;49.164;9.060;2022-10-14T02:41:13;15.40;99.90
30379;DHT22;17168;49.164;9.060;2022-10-14T02:43:46;15.40;99.90
30379;DHT22;17168;49.164;9.060;2022-10-14T02:46:19;15.40;99.90
30379;DHT22;17168;49.164;9.060;2022-10-14T02:48:52;15.40;99.90
30379;DHT22;17168;49.164;9.060;2022-10-14T02:51:24;15.30;99.90
30379;DHT22;17168;49.164;9.060;2022-10-14T02:53:56;15.30;99.90
30379;DHT22;17168;49.164;9.060;2022-10-14T02:56:28;15.30;99.90
30379;DHT22;17168;49.164;9.060;2022-10-14T02:59:00;15.30;99.90
30379;DHT22;17168;49.164;9.060;2022-10-14T03:01:32;15.30;99.90
30379;DHT22;17168;49.164;9.060;2022-10-14T03:04:09;15.30;99.90
30379;DHT22;17168;49.164;9.060;2022-10-14T03:06:41;15.30;99.90
30379;DHT22;17168;49.164;9.060;2022-10-14T03:09:13;15.30;99.90
30379;DHT22;17168;49.164;9.060;2022-10-14T03:11:45;15.30;99.90
30379;DHT22;17168;49.164;9.060;2022-10-14T03:14:17;15.30;99.90
30379;DHT22;17168;49.164;9.060;2022-10-14T03:16:49;15.40;99.90
30379;DHT22;17168;49.164;9.060;2022-10-14T03:19:22;15.40;99.90
30379;DHT22;17168;49.164;9.060;2022-10-14T03:21:53;15.40;99.90
30379;DHT22;17168;49.164;9.060;2022-10-14T03:24:28;15.40;99.90
30379;DHT22;17168;49.164;9.060;2022-10-14T03:27:00;15.30;99.90
30379;DHT22;17168;49.164;9.060;2022-10-14T03:29:32;15.30;99.90
30379;DHT22;17168;49.164;9.060;2022-10-14T03:32:04;15.30;99.90
30379;DHT22;17168;49.164;9.060;2022-10-14T03:34:37;15.30;99.90
30379;DHT22;17168;49.164;9.060;2022-10-14T03:37:09;15.40;99.90
30379;DHT22;17168;49.164;9.060;2022-10-14T03:39:41;15.40;99.90
30379;DHT22;17168;49.164;9.060;2022-10-14T03:42:12;15.40;99.90
30379;DHT22;17168;49.164;9.060;2022-10-14T03:44:44;15.40;99.90
30379;DHT22;17168;49.164;9.060;2022-10-14T03:47:16;15.40;99.90
30379;DHT22;17168;49.164;9.060;2022-10-14T03:49:50;15.40;99.90
30379;DHT22;17168;49.164;9.060;2022-10-14T03:52:22;15.40;99.90
30379;DHT22;17168;49.164;9.060;2022-10-14T03:54:54;15.40;99.90
30379;DHT22;17168;49.164;9.060;2022-10-14T03:57:26;15.40;99.90
30379;DHT22;17168;49.164;9.060;2022-10-14T03:59:57;15.40;99.90
30379;DHT22;17168;49.164;9.060;2022-10-14T04:02:29;15.30;99.90
30379;DHT22;17168;49.164;9.060;2022-10-14T04:05:03;15.40;99.90
30379;DHT22;17168;49.164;9.060;2022-10-14T04:07:34;15.40;99.90
30379;DHT22;17168;49.164;9.060;2022-10-14T04:10:07;15.30;99.90
30379;DHT22;17168;49.164;9.060;2022-10-14T04:12:39;15.30;99.90
30379;DHT22;17168;49.164;9.060;2022-10-14T04:15:10;15.40;99.90
30379;DHT22;17168;49.164;9.060;2022-10-14T04:17:42;15.30;99.90
30379;DHT22;17168;49.164;9.060;2022-10-14T04:20:16;15.30;99.90
30379;DHT22;17168;49.164;9.060;2022-10-14T04:22:48;15.30;99.90
30379;DHT22;17168;49.164;9.060;2022-10-14T04:25:20;15.30;99.90
30379;DHT22;17168;49.164;9.060;2022-10-14T04:27:52;15.30;99.90
30379;DHT22;17168;49.164;9.060;2022-10-14T04:30:23;15.30;99.90
30379;DHT22;17168;49.164;9.060;2022-10-14T04:32:55;15.30;99.90
30379;DHT22;17168;49.164;9.060;2022-10-14T04:35:28;15.30;99.90
30379;DHT22;17168;49.164;9.060;2022-10-14T04:38:00;15.30;99.90
30379;DHT22;17168;49.164;9.060;2022-10-14T04:40:32;15.30;99.90
30379;DHT22;17168;49.164;9.060;2022-10-14T04:43:04;15.30;99.90
30379;DHT22;17168;49.164;9.060;2022-10-14T04:45:36;15.30;99.90
30379;DHT22;17168;49.164;9.060;2022-10-14T04:48:08;15.30;99.90
30379;DHT22;17168;49.164;9.060;2022-10-14T04:50:41;15.30;99.90
30379;DHT22;17168;49.164;9.060;2022-10-14T04:53:13;15.20;99.90
30379;DHT22;17168;49.164;9.060;2022-10-14T04:55:49;15.20;99.90
30379;DHT22;17168;49.164;9.060;2022-10-14T04:58:22;15.20;99.90
30379;DHT22;17168;49.164;9.060;2022-10-14T05:00:54;15.20;99.90
30379;DHT22;17168;49.164;9.060;2022-10-14T05:03:26;15.20;99.90
30379;DHT22;17168;49.164;9.060;2022-10-14T05:05:59;15.20;99.90
30379;DHT22;17168;49.164;9.060;2022-10-14T05:08:31;15.20;99.90
30379;DHT22;17168;49.164;9.060;2022-10-14T05:11:03;15.20;99.90
30379;DHT22;17168;49.164;9.060;2022-10-14T05:13:35;15.20;99.90
30379;DHT22;17168;49.164;9.060;2022-10-14T05:16:07;15.20;99.90
30379;DHT22;17168;49.164;9.060;2022-10-14T05:18:39;15.20;99.90
30379;DHT22;17168;49.164;9.060;2022-10-14T05:21:12;15.20;99.90
30379;DHT22;17168;49.164;9.060;2022-10-14T05:23:44;15.20;99.90
30379;DHT22;17168;49.164;9.060;2022-10-14T05:26:16;15.20;99.90
30379;DHT22;17168;49.164;9.060;2022-10-14T05:28:50;15.20;99.90
30379;DHT22;17168;49.164;9.060;2022-10-14T05:31:22;15.20;99.90
30379;DHT22;17168;49.164;9.060;2022-10-14T05:33:54;15.20;99.90
30379;DHT22;17168;49.164;9.060;2022-10-14T05:36:28;15.20;99.90
30379;DHT22;17168;49.164;9.060;2022-10-14T05:38:59;15.20;99.90
30379;DHT22;17168;49.164;9.060;2022-10-14T05:41:31;15.20;99.90
30379;DHT22;17168;49.164;9.060;2022-10-14T05:44:03;15.20;99.90
30379;DHT22;17168;49.164;9.060;2022-10-14T05:46:35;15.20;99.90
30379;DHT22;17168;49.164;9.060;2022-10-14T05:49:08;15.20;99.90
30379;DHT22;17168;49.164;9.060;2022-10-14T05:51:42;15.20;99.90
30379;DHT22;17168;49.164;9.060;2022-10-14T05:54:14;15.20;99.90
30379;DHT22;17168;49.164;9.060;2022-10-14T05:56:45;15.20;99.90
30379;DHT22;17168;49.164;9.060;2022-10-14T05:59:17;15.20;99.90
30379;DHT22;17168;49.164;9.060;2022-10-14T06:01:50;15.20;99.90
30379;DHT22;17168;49.164;9.060;2022-10-14T06:04:22;15.20;99.90
30379;DHT22;17168;49.164;9.060;2022-10-14T06:06:55;15.30;99.90
30379;DHT22;17168;49.164;9.060;2022-10-14T06:09:29;15.30;99.90
30379;DHT22;17168;49.164;9.060;2022-10-14T06:12:01;15.30;99.90
30379;DHT22;17168;49.164;9.060;2022-10-14T06:14:33;15.30;99.90
30379;DHT22;17168;49.164;9.060;2022-10-14T06:17:05;15.30;99.90
30379;DHT22;17168;49.164;9.060;2022-10-14T06:19:36;15.30;99.90
30379;DHT22;17168;49.164;9.060;2022-10-14T06:22:10;15.30;99.90
30379;DHT22;17168;49.164;9.060;2022-10-14T06:24:41;15.30;99.90
30379;DHT22;17168;49.164;9.060;2022-10-14T06:27:13;15.30;99.90
30379;DHT22;17168;49.164;9.060;2022-10-14T06:29:45;15.40;99.90
30379;DHT22;17168;49.164;9.060;2022-10-14T06:32:18;15.40;99.90
30379;DHT22;17168;49.164;9.060;2022-10-14T06:34:50;15.40;99.90
30379;DHT22;17168;49.164;9.060;2022-10-14T06:37:23;15.40;99.90
30379;DHT22;17168;49.164;9.060;2022-10-14T06:39:55;15.40;99.90
30379;DHT22;17168;49.164;9.060;2022-10-14T06:42:27;15.40;99.90
30379;DHT22;17168;49.164;9.060;2022-10-14T06:44:58;15.50;99.90
30379;DHT22;17168;49.164;9.060;2022-10-14T06:47:31;15.50;99.90
30379;DHT22;17168;49.164;9.060;2022-10-14T06:50:03;15.50;99.90
30379;DHT22;17168;49.164;9.060;2022-10-14T06:52:36;15.50;99.90
30379;DHT22;17168;49.164;9.060;2022-10-14T06:55:08;15.60;99.90
30379;DHT22;17168;49.164;9.060;2022-10-14T06:57:40;15.60;99.90
30379;DHT22;17168;49.164;9.060;2022-10-14T07:00:12;15.60;99.90
30379;DHT22;17168;49.164;9.060;2022-10-14T07:02:44;15.60;99.90
30379;DHT22;17168;49.164;9.060;2022-10-14T07:05:16;15.60;99.90
30379;DHT22;17168;49.164;9.060;2022-10-14T07:07:49;15.70;99.90
30379;DHT22;17168;49.164;9.060;2022-10-14T07:10:21;15.70;99.90
30379;DHT22;17168;49.164;9.060;2022-10-14T07:12:53;15.70;99.90
30379;DHT22;17168;49.164;9.060;2022-10-14T07:15:26;15.70;99.90
30379;DHT22;17168;49.164;9.060;2022-10-14T07:18:03;15.80;99.90
30379;DHT22;17168;49.164;9.060;2022-10-14T07:20:35;15.80;99.90
30379;DHT22;17168;49.164;9.060;2022-10-14T07:23:08;15.80;99.90
30379;DHT22;17168;49.164;9.060;2022-10-14T07:25:40;15.80;99.90
30379;DHT22;17168;49.164;9.060;2022-10-14T07:28:12;15.80;99.90
30379;DHT22;17168;49.164;9.060;2022-10-14T07:30:44;15.90;99.90
30379;DHT22;17168;49.164;9.060;2022-10-14T07:33:16;15.90;99.90
30379;DHT22;17168;49.164;9.060;2022-10-14T07:35:48;16.00;99.90
30379;DHT22;17168;49.164;9.060;2022-10-14T07:38:21;16.00;99.90
30379;DHT22;17168;49.164;9.060;2022-10-14T07:40:57;16.00;99.90
30379;DHT22;17168;49.164;9.060;2022-10-14T07:43:29;16.10;99.90
30379;DHT22;17168;49.164;9.060;2022-10-14T07:46:03;16.10;99.90
30379;DHT22;17168;49.164;9.060;2022-10-14T07:48:36;16.10;99.90
30379;DHT22;17168;49.164;9.060;2022-10-14T07:51:27;16.20;99.90
30379;DHT22;17168;49.164;9.060;2022-10-14T07:54:02;16.20;99.90
30379;DHT22;17168;49.164;9.060;2022-10-14T07:56:34;16.20;99.90
30379;DHT22;17168;49.164;9.060;2022-10-14T07:59:06;16.30;99.90
30379;DHT22;17168;49.164;9.060;2022-10-14T08:01:38;16.30;99.90
30379;DHT22;17168;49.164;9.060;2022-10-14T08:04:10;16.40;99.90
30379;DHT22;17168;49.164;9.060;2022-10-14T08:06:42;16.40;99.90
30379;DHT22;17168;49.164;9.060;2022-10-14T08:09:16;16.50;99.90
30379;DHT22;17168;49.164;9.060;2022-10-14T08:11:48;16.50;99.90
30379;DHT22;17168;49.164;9.060;2022-10-14T08:14:20;16.60;99.90
30379;DHT22;17168;49.164;9.060;2022-10-14T08:16:51;16.60;99.90
30379;DHT22;17168;49.164;9.060;2022-10-14T08:19:23;16.70;99.90
30379;DHT22;17168;49.164;9.060;2022-10-14T08:21:55;16.70;99.90
30379;DHT22;17168;49.164;9.060;2022-10-14T08:24:28;16.70;99.90
30379;DHT22;17168;49.164;9.060;2022-10-14T08:27:00;16.70;99.90
30379;DHT22;17168;49.164;9.060;2022-10-14T08:29:32;16.80;99.90
30379;DHT22;17168;49.164;9.060;2022-10-14T08:32:04;16.80;99.90
30379;DHT22;17168;49.164;9.060;2022-10-14T08:34:36;16.80;99.90
30379;DHT22;17168;49.164;9.060;2022-10-14T08:37:08;16.90;99.90
30379;DHT22;17168;49.164;9.060;2022-10-14T08:39:42;16.90;99.90
30379;DHT22;17168;49.164;9.060;2022-10-14T08:42:22;17.00;99.90
30379;DHT22;17168;49.164;9.060;2022-10-14T08:45:00;17.00;99.90
30379;DHT22;17168;49.164;9.060;2022-10-14T08:47:36;17.00;99.90
30379;DHT22;17168;49.164;9.060;2022-10-14T08:50:22;17.10;99.90
30379;DHT22;17168;49.164;9.060;2022-10-14T08:53:00;17.10;99.90
30379;DHT22;17168;49.164;9.060;2022-10-14T08:55:36;17.10;99.90
30379;DHT22;17168;49.164;9.060;2022-10-14T08:58:13;17.20;99.90
30379;DHT22;17168;49.164;9.060;2022-10-14T09:00:49;17.20;99.90
30379;DHT22;17168;49.164;9.060;2022-10-14T09:03:23;17.20;99.90
30379;DHT22;17168;49.164;9.060;2022-10-14T09:05:59;17.20;99.90
30379;DHT22;17168;49.164;9.060;2022-10-14T09:08:33;17.20;99.90
30379;DHT22;17168;49.164;9.060;2022-10-14T09:11:11;17.20;99.90
30379;DHT22;17168;49.164;9.060;2022-10-14T09:13:47;17.30;99.90
30379;DHT22;17168;49.164;9.060;2022-10-14T09:16:21;17.30;99.90
30379;DHT22;17168;49.164;9.060;2022-10-14T09:18:56;17.30;99.90
30379;DHT22;17168;49.164;9.060;2022-10-14T09:21:31;17.40;99.90
30379;DHT22;17168;49.164;9.060;2022-10-14T09:24:26;17.40;99.90
30379;DHT22;17168;49.164;9.060;2022-10-14T09:27:04;17.40;99.90
30379;DHT22;17168;49.164;9.060;2022-10-14T09:29:40;17.40;99.90
30379;DHT22;17168;49.164;9.060;2022-10-14T09:32:24;17.40;99.90
30379;DHT22;17168;49.164;9.060;2022-10-14T09:34:58;17.50;99.90
30379;DHT22;17168;49.164;9.060;2022-10-14T09:37:31;17.50;99.90
30379;DHT22;17168;49.164;9.060;2022-10-14T09:40:13;17.50;99.90
30379;DHT22;17168;49.164;9.060;2022-10-14T09:42:51;17.60;99.90
30379;DHT22;17168;49.164;9.060;2022-10-14T09:45:27;17.60;99.90
30379;DHT22;17168;49.164;9.060;2022-10-14T09:48:02;17.60;99.90
30379;DHT22;17168;49.164;9.060;2022-10-14T09:50:40;17.70;99.90
30379;DHT22;17168;49.164;9.060;2022-10-14T09:53:17;17.70;99.90
30379;DHT22;17168;49.164;9.060;2022-10-14T09:55:53;17.70;99.90
30379;DHT22;17168;49.164;9.060;2022-10-14T09:58:32;17.80;99.90
30379;DHT22;17168;49.164;9.060;2022-10-14T10:01:06;17.80;99.90
30379;DHT22;17168;49.164;9.060;2022-10-14T10:03:43;17.80;99.90
30379;DHT22;17168;49.164;9.060;2022-10-14T10:06:18;17.90;99.90
30379;DHT22;17168;49.164;9.060;2022-10-14T10:08:55;17.90;99.90
30379;DHT22;17168;49.164;9.060;2022-10-14T10:11:29;18.00;99.90
30379;DHT22;17168;49.164;9.060;2022-10-14T10:14:15;18.00;99.90
30379;DHT22;17168;49.164;9.060;2022-10-14T10:16:49;18.00;99.90
30379;DHT22;17168;49.164;9.060;2022-10-14T10:19:26;18.00;99.90
30379;DHT22;17168;49.164;9.060;2022-10-14T10:22:15;18.10;99.90
30379;DHT22;17168;49.164;9.060;2022-10-14T10:25:17;18.10;99.90
30379;DHT22;17168;49.164;9.060;2022-10-14T10:27:48;18.10;99.90
30379;DHT22;17168;49.164;9.060;2022-10-14T10:30:25;18.10;99.90
30379;DHT22;17168;49.164;9.060;2022-10-14T10:33:15;18.10;99.90
30379;DHT22;17168;49.164;9.060;2022-10-14T10:36:06;18.10;99.90
30379;DHT22;17168;49.164;9.060;2022-10-14T10:38:56;18.20;99.90
30379;DHT22;17168;49.164;9.060;2022-10-14T10:41:43;18.20;99.90
30379;DHT22;17168;49.164;9.060;2022-10-14T10:47:39;18.20;99.90
30379;DHT22;17168;49.164;9.060;2022-10-14T10:50:24;18.20;99.90
30379;DHT22;17168;49.164;9.060;2022-10-14T10:53:11;18.20;99.90
30379;DHT22;17168;49.164;9.060;2022-10-14T10:55:54;18.30;99.90
30379;DHT22;17168;49.164;9.060;2022-10-14T10:58:40;18.30;99.90
30379;DHT22;17168;49.164;9.060;2022-10-14T11:01:32;18.30;99.90
30379;DHT22;17168;49.164;9.060;2022-10-14T11:04:25;18.40;99.90
30379;DHT22;17168;49.164;9.060;2022-10-14T11:07:09;18.40;99.90
30379;DHT22;17168;49.164;9.060;2022-10-14T11:10:11;18.50;99.90
30379;DHT22;17168;49.164;9.060;2022-10-14T11:13:15;18.50;99.90
30379;DHT22;17168;49.164;9.060;2022-10-14T11:15:57;18.50;99.90
30379;DHT22;17168;49.164;9.060;2022-10-14T11:18:35;18.50;99.90
30379;DHT22;17168;49.164;9.060;2022-10-14T11:21:16;18.50;99.90
30379;DHT22;17168;49.164;9.060;2022-10-14T11:23:55;18.50;99.90
30379;DHT22;17168;49.164;9.060;2022-10-14T11:26:47;18.50;99.90
30379;DHT22;17168;49.164;9.060;2022-10-14T11:29:32;18.60;99.90
30379;DHT22;17168;49.164;9.060;2022-10-14T11:32:12;18.60;99.90
30379;DHT22;17168;49.164;9.060;2022-10-14T11:35:00;18.50;99.90
30379;DHT22;17168;49.164;9.060;2022-10-14T11:37:48;18.50;99.90
30379;DHT22;17168;49.164;9.060;2022-10-14T11:40:26;18.50;99.90
30379;DHT22;17168;49.164;9.060;2022-10-14T11:43:09;18.40;99.90
30379;DHT22;17168;49.164;9.060;2022-10-14T11:45:48;18.40;99.90
30379;DHT22;17168;49.164;9.060;2022-10-14T11:48:32;18.40;99.90
30379;DHT22;17168;49.164;9.060;2022-10-14T11:51:10;18.40;99.90
30379;DHT22;17168;49.164;9.060;2022-10-14T11:53:51;18.30;99.90
30379;DHT22;17168;49.164;9.060;2022-10-14T11:56:41;18.30;99.90
30379;DHT22;17168;49.164;9.060;2022-10-14T11:59:25;18.30;99.90
30379;DHT22;17168;49.164;9.060;2022-10-14T12:05:13;18.20;99.90
30379;DHT22;17168;49.164;9.060;2022-10-14T12:07:58;18.20;99.90
30379;DHT22;17168;49.164;9.060;2022-10-14T12:10:34;18.20;99.90
30379;DHT22;17168;49.164;9.060;2022-10-14T12:13:11;18.10;99.90
30379;DHT22;17168;49.164;9.060;2022-10-14T12:15:48;18.10;99.90
30379;DHT22;17168;49.164;9.060;2022-10-14T12:18:21;18.20;99.90
30379;DHT22;17168;49.164;9.060;2022-10-14T12:20:56;18.10;99.90
30379;DHT22;17168;49.164;9.060;2022-10-14T12:23:32;18.10;99.90
30379;DHT22;17168;49.164;9.060;2022-10-14T12:26:12;18.10;99.90
30379;DHT22;17168;49.164;9.060;2022-10-14T12:28:46;18.00;99.90
30379;DHT22;17168;49.164;9.060;2022-10-14T12:31:21;18.00;99.90
30379;DHT22;17168;49.164;9.060;2022-10-14T12:34:30;18.00;99.90
30379;DHT22;17168;49.164;9.060;2022-10-14T12:40:24;18.10;99.90
30379;DHT22;17168;49.164;9.060;2022-10-14T12:43:21;18.20;99.90
30379;DHT22;17168;49.164;9.060;2022-10-14T12:46:10;18.30;99.90
30379;DHT22;17168;49.164;9.060;2022-10-14T12:48:45;18.60;99.90
30379;DHT22;17168;49.164;9.060;2022-10-14T12:51:21;19.00;99.90
30379;DHT22;17168;49.164;9.060;2022-10-14T12:54:03;19.10;99.90
30379;DHT22;17168;49.164;9.060;2022-10-14T12:56:38;19.40;99.90
30379;DHT22;17168;49.164;9.060;2022-10-14T12:59:21;19.60;99.90
30379;DHT22;17168;49.164;9.060;2022-10-14T13:01:55;19.80;99.90
30379;DHT22;17168;49.164;9.060;2022-10-14T13:04:28;20.00;99.90
30379;DHT22;17168;49.164;9.060;2022-10-14T13:07:31;20.00;99.90
30379;DHT22;17168;49.164;9.060;2022-10-14T13:13:48;20.10;99.90
30379;DHT22;17168;49.164;9.060;2022-10-14T13:16:58;20.10;99.90
30379;DHT22;17168;49.164;9.060;2022-10-14T13:19:44;20.10;99.90
30379;DHT22;17168;49.164;9.060;2022-10-14T13:22:37;20.10;99.90
30379;DHT22;17168;49.164;9.060;2022-10-14T13:25:18;20.10;99.90
30379;DHT22;17168;49.164;9.060;2022-10-14T13:28:13;20.10;99.90
30379;DHT22;17168;49.164;9.060;2022-10-14T13:30:54;20.00;99.90
30379;DHT22;17168;49.164;9.060;2022-10-14T13:33:33;20.00;99.90
30379;DHT22;17168;49.164;9.060;2022-10-14T13:36:14;19.90;99.90
30379;DHT22;17168;49.164;9.060;2022-10-14T13:38:53;19.90;99.90
30379;DHT22;17168;49.164;9.060;2022-10-14T13:41:27;19.80;99.90
30379;DHT22;17168;49.164;9.060;2022-10-14T13:44:02;19.80;99.90
30379;DHT22;17168;49.164;9.060;2022-10-14T13:46:37;19.80;99.90
30379;DHT22;17168;49.164;9.060;2022-10-14T13:49:15;19.70;99.90
30379;DHT22;17168;49.164;9.060;2022-10-14T13:51:50;19.70;99.90
30379;DHT22;17168;49.164;9.060;2022-10-14T13:54:23;19.70;99.90
30379;DHT22;17168;49.164;9.060;2022-10-14T13:57:01;19.70;99.90
30379;DHT22;17168;49.164;9.060;2022-10-14T13:59:53;19.60;99.90
30379;DHT22;17168;49.164;9.060;2022-10-14T14:02:45;19.60;99.90
30379;DHT22;17168;49.164;9.060;2022-10-14T14:05:28;19.60;99.90
30379;DHT22;17168;49.164;9.060;2022-10-14T14:08:03;19.70;99.90
30379;DHT22;17168;49.164;9.060;2022-10-14T14:10:56;19.70;99.90
30379;DHT22;17168;49.164;9.060;2022-10-14T14:13:51;19.70;99.90
30379;DHT22;17168;49.164;9.060;2022-10-14T14:16:33;19.70;99.90
30379;DHT22;17168;49.164;9.060;2022-10-14T14:19:15;19.70;99.90
30379;DHT22;17168;49.164;9.060;2022-10-14T14:21:49;19.70;99.90
30379;DHT22;17168;49.164;9.060;2022-10-14T14:24:22;19.70;99.90
30379;DHT22;17168;49.164;9.060;2022-10-14T14:26:54;19.70;99.90
30379;DHT22;17168;49.164;9.060;2022-10-14T14:29:28;19.60;99.90
30379;DHT22;17168;49.164;9.060;2022-10-14T14:32:03;19.60;99.90
30379;DHT22;17168;49.164;9.060;2022-10-14T14:34:40;19.40;99.90
30379;DHT22;17168;49.164;9.060;2022-10-14T14:37:17;19.40;99.90
30379;DHT22;17168;49.164;9.060;2022-10-14T14:40:16;19.30;99.90
30379;DHT22;17168;49.164;9.060;2022-10-14T14:42:50;19.20;99.90
30379;DHT22;17168;49.164;9.060;2022-10-14T14:45:24;19.10;99.90
30379;DHT22;17168;49.164;9.060;2022-10-14T14:48:01;19.10;99.90
30379;DHT22;17168;49.164;9.060;2022-10-14T14:50:37;19.10;99.90
30379;DHT22;17168;49.164;9.060;2022-10-14T14:53:14;19.10;99.90
30379;DHT22;17168;49.164;9.060;2022-10-14T14:55:58;19.10;99.90
30379;DHT22;17168;49.164;9.060;2022-10-14T14:58:34;19.00;99.90
30379;DHT22;17168;49.164;9.060;2022-10-14T15:01:14;18.90;99.90
30379;DHT22;17168;49.164;9.060;2022-10-14T15:03:55;18.90;99.90
30379;DHT22;17168;49.164;9.060;2022-10-14T15:06:49;18.80;99.90
30379;DHT22;17168;49.164;9.060;2022-10-14T15:09:31;18.70;99.90
30379;DHT22;17168;49.164;9.060;2022-10-14T15:12:10;18.70;99.90
30379;DHT22;17168;49.164;9.060;2022-10-14T15:14:47;18.60;99.90
30379;DHT22;17168;49.164;9.060;2022-10-14T15:17:29;18.40;99.90
30379;DHT22;17168;49.164;9.060;2022-10-14T15:20:25;18.30;99.90
30379;DHT22;17168;49.164;9.060;2022-10-14T15:22:58;18.00;99.90
30379;DHT22;17168;49.164;9.060;2022-10-14T15:25:32;17.90;99.90
30379;DHT22;17168;49.164;9.060;2022-10-14T15:28:04;17.80;99.90
30379;DHT22;17168;49.164;9.060;2022-10-14T15:30:48;17.70;99.90
30379;DHT22;17168;49.164;9.060;2022-10-14T15:33:25;17.60;99.90
30379;DHT22;17168;49.164;9.060;2022-10-14T15:35:58;17.50;99.90
30379;DHT22;17168;49.164;9.060;2022-10-14T15:38:32;17.50;99.90
30379;DHT22;17168;49.164;9.060;2022-10-14T15:41:05;17.50;99.90
30379;DHT22;17168;49.164;9.060;2022-10-14T15:43:37;17.50;99.90
30379;DHT22;17168;49.164;9.060;2022-10-14T15:46:11;17.50;99.90
30379;DHT22;17168;49.164;9.060;2022-10-14T15:49:04;17.50;99.90
30379;DHT22;17168;49.164;9.060;2022-10-14T15:51:41;17.50;99.90
30379;DHT22;17168;49.164;9.060;2022-10-14T15:54:14;17.50;99.90
30379;DHT22;17168;49.164;9.060;2022-10-14T15:56:48;17.50;99.90
30379;DHT22;17168;49.164;9.060;2022-10-14T15:59:20;17.50;99.90
30379;DHT22;17168;49.164;9.060;2022-10-14T16:01:52;17.50;99.90
30379;DHT22;17168;49.164;9.060;2022-10-14T16:04:25;17.50;99.90
30379;DHT22;17168;49.164;9.060;2022-10-14T16:06:58;17.50;99.90
30379;DHT22;17168;49.164;9.060;2022-10-14T16:09:30;17.50;99.90
30379;DHT22;17168;49.164;9.060;2022-10-14T16:12:03;17.50;99.90
30379;DHT22;17168;49.164;9.060;2022-10-14T16:14:35;17.50;99.90
30379;DHT22;17168;49.164;9.060;2022-10-14T16:17:07;17.50;99.90
30379;DHT22;17168;49.164;9.060;2022-10-14T16:19:39;17.50;99.90
30379;DHT22;17168;49.164;9.060;2022-10-14T16:22:11;17.50;99.90
30379;DHT22;17168;49.164;9.060;2022-10-14T16:24:43;17.50;99.90
30379;DHT22;17168;49.164;9.060;2022-10-14T16:27:16;17.50;99.90
30379;DHT22;17168;49.164;9.060;2022-10-14T16:29:48;17.50;99.90
30379;DHT22;17168;49.164;9.060;2022-10-14T16:32:19;17.50;99.90
30379;DHT22;17168;49.164;9.060;2022-10-14T16:35:12;17.40;99.90
30379;DHT22;17168;49.164;9.060;2022-10-14T16:37:44;17.50;99.90
30379;DHT22;17168;49.164;9.060;2022-10-14T16:40:16;17.40;99.90
30379;DHT22;17168;49.164;9.060;2022-10-14T16:42:49;17.40;99.90
30379;DHT22;17168;49.164;9.060;2022-10-14T16:45:21;17.40;99.90